createdAt,value
2022-08-22T00:01:06.059Z,21.23
2022-08-22T00:02:55.326Z,21.49
2022-08-22T00:02:56.792Z,22.42
2022-08-22T00:02:59.073Z,21.22
2022-08-22T00:03:09.242Z,21.21
2022-08-22T00:03:45.250Z,21.34
2022-08-22T00:06:20.541Z,21.21
2022-08-22T00:09:03.283Z,21.21
2022-08-22T00:11:47.574Z,21.15
2022-08-22T00:14:23.664Z,21.15
2022-08-22T00:16:59.358Z,21.25
2022-08-22T00:19:43.095Z,21.28
2022-08-22T00:22:19.426Z,21.32
2022-08-22T00:24:52.105Z,21.33
2022-08-22T00:27:25.051Z,21.37
2022-08-22T00:29:59.083Z,21.35
2022-08-22T00:32:31.533Z,21.38
2022-08-22T00:35:03.823Z,21.42
2022-08-22T00:37:38.666Z,21.44
2022-08-22T00:40:24.771Z,21.26
2022-08-22T00:43:27.696Z,21.21
2022-08-22T00:46:13.146Z,21.06
2022-08-22T00:49:12.038Z,20.99
2022-08-22T00:52:01.269Z,20.95
2022-08-22T00:54:47.453Z,21.00
2022-08-22T00:57:36.744Z,21.00
2022-08-22T01:00:18.320Z,21.03
2022-08-22T01:03:22.731Z,21.12
2022-08-22T01:06:08.811Z,21.07
2022-08-22T01:08:53.999Z,21.09
2022-08-22T01:12:05.136Z,21.06
2022-08-22T01:14:44.760Z,21.16
2022-08-22T01:17:35.096Z,20.90
2022-08-22T01:20:34.151Z,20.80
2022-08-22T01:23:40.932Z,20.88
2022-08-22T01:26:53.726Z,20.99
2022-08-22T01:29:51.396Z,21.09
2022-08-22T01:32:57.039Z,21.07
2022-08-22T01:35:42.918Z,21.09
2022-08-22T01:38:34.116Z,21.05
2022-08-22T01:41:44.046Z,21.00
2022-08-22T01:44:28.727Z,20.86
2022-08-22T01:47:03.715Z,20.88
2022-08-22T01:49:41.056Z,20.89
2022-08-22T01:52:18.228Z,20.98
2022-08-22T01:54:52.684Z,20.93
2022-08-22T01:57:21.309Z,20.97
2022-08-22T01:59:53.358Z,20.97
2022-08-22T02:02:38.152Z,21.00
2022-08-22T02:05:14.521Z,21.04
2022-08-22T02:07:50.254Z,21.02
2022-08-22T02:10:23.995Z,21.11
2022-08-22T02:13:04.163Z,20.94
2022-08-22T02:15:46.401Z,20.92
2022-08-22T02:18:26.030Z,20.93
2022-08-22T02:21:06.861Z,20.88
2022-08-22T02:23:47.118Z,20.84
2022-08-22T02:26:19.022Z,20.86
2022-08-22T02:28:58.159Z,20.93
2022-08-22T02:31:38.239Z,20.96
2022-08-22T02:34:21.647Z,20.94
2022-08-22T02:36:54.950Z,20.93
2022-08-22T02:39:37.247Z,20.94
2022-08-22T02:42:18.355Z,20.90
2022-08-22T02:44:57.952Z,20.99
2022-08-22T02:47:33.554Z,20.99
2022-08-22T02:50:13.188Z,20.95
2022-08-22T02:52:55.322Z,20.85
2022-08-22T02:55:36.701Z,20.71
2022-08-22T02:58:10.114Z,20.76
2022-08-22T03:00:49.562Z,20.87
2022-08-22T03:03:23.390Z,20.92
2022-08-22T03:06:01.824Z,20.88
2022-08-22T03:08:34.054Z,20.91
2022-08-22T03:11:17.328Z,20.87
2022-08-22T03:13:57.881Z,20.81
2022-08-22T03:16:33.975Z,20.73
2022-08-22T03:19:08.034Z,20.73
2022-08-22T03:21:56.923Z,20.63
2022-08-22T03:24:31.488Z,20.63
2022-08-22T03:27:08.554Z,20.65
2022-08-22T03:29:40.693Z,20.69
2022-08-22T03:32:14.894Z,20.71
2022-08-22T03:34:58.306Z,20.71
2022-08-22T03:37:37.545Z,20.67
2022-08-22T03:40:22.232Z,20.71
2022-08-22T03:43:30.297Z,20.77
2022-08-22T03:46:28.210Z,20.81
2022-08-22T03:49:34.124Z,20.84
2022-08-22T03:52:21.240Z,20.85
2022-08-22T03:55:08.497Z,20.86
2022-08-22T03:58:27.886Z,20.86
2022-08-22T04:01:43.775Z,20.84
2022-08-22T04:04:59.211Z,20.83
2022-08-22T04:07:51.494Z,20.80
2022-08-22T04:10:59.390Z,20.83
2022-08-22T04:13:51.189Z,20.90
2022-08-22T04:17:02.326Z,20.88
2022-08-22T04:19:47.954Z,20.78
2022-08-22T04:22:31.249Z,20.77
2022-08-22T04:25:07.816Z,20.71
2022-08-22T04:27:44.746Z,20.79
2022-08-22T04:30:23.395Z,20.78
2022-08-22T04:32:58.094Z,20.77
2022-08-22T04:35:31.673Z,20.75
2022-08-22T04:38:04.646Z,20.73
2022-08-22T04:40:39.869Z,20.69
2022-08-22T04:43:13.477Z,20.69
2022-08-22T04:45:49.157Z,20.66
2022-08-22T04:48:25.256Z,20.56
2022-08-22T04:50:59.431Z,20.59
2022-08-22T04:53:48.488Z,20.53
2022-08-22T04:56:25.185Z,20.56
2022-08-22T04:58:59.623Z,20.52
2022-08-22T05:01:43.337Z,20.55
2022-08-22T05:04:16.849Z,20.60
2022-08-22T05:06:49.450Z,20.69
2022-08-22T05:09:23.020Z,20.70
2022-08-22T05:11:57.596Z,20.68
2022-08-22T05:14:31.576Z,20.71
2022-08-22T05:17:04.422Z,20.59
2022-08-22T05:19:35.760Z,20.50
2022-08-22T05:22:07.028Z,20.56
2022-08-22T05:24:40.489Z,20.60
2022-08-22T05:27:14.850Z,20.65
2022-08-22T05:29:47.426Z,20.64
2022-08-22T05:32:22.199Z,20.62
2022-08-22T05:34:55.079Z,20.63
2022-08-22T05:37:30.994Z,20.63
2022-08-22T05:40:02.447Z,20.59
2022-08-22T05:42:34.437Z,20.64
2022-08-22T05:45:04.256Z,20.68
2022-08-22T05:47:37.727Z,20.60
2022-08-22T05:50:09.572Z,20.65
2022-08-22T05:53:00.803Z,20.61
2022-08-22T05:55:33.399Z,20.64
2022-08-22T05:58:23.642Z,20.61
2022-08-22T06:01:01.305Z,20.76
2022-08-22T06:03:38.128Z,20.73
2022-08-22T06:06:15.621Z,20.81
2022-08-22T06:08:49.835Z,20.90
2022-08-22T06:11:33.704Z,20.88
2022-08-22T06:14:13.754Z,21.01
2022-08-22T06:16:49.208Z,20.97
2022-08-22T06:19:20.867Z,21.00
2022-08-22T06:21:52.008Z,21.04
2022-08-22T06:24:25.289Z,21.15
2022-08-22T06:26:56.591Z,21.24
2022-08-22T06:29:36.699Z,21.33
2022-08-22T06:32:13.438Z,21.45
2022-08-22T06:34:46.778Z,21.45
2022-08-22T06:37:21.273Z,21.49
2022-08-22T06:39:53.398Z,21.61
2022-08-22T06:42:25.917Z,21.75
2022-08-22T06:44:58.592Z,21.80
2022-08-22T06:47:31.681Z,21.92
2022-08-22T06:50:04.559Z,21.98
2022-08-22T06:52:38.908Z,21.95
2022-08-22T06:55:09.131Z,22.04
2022-08-22T06:57:44.791Z,22.24
2022-08-22T07:00:17.056Z,22.36
2022-08-22T07:02:48.208Z,22.33
2022-08-22T07:05:22.000Z,22.43
2022-08-22T07:07:52.326Z,22.80
2022-08-22T07:10:23.680Z,23.37
2022-08-22T07:12:57.790Z,24.38
2022-08-22T07:15:34.480Z,24.76
2022-08-22T07:18:06.006Z,24.61
2022-08-22T07:20:42.001Z,24.45
2022-08-22T07:23:12.881Z,24.71
2022-08-22T07:25:53.021Z,25.68
2022-08-22T07:28:36.972Z,26.51
2022-08-22T07:31:27.843Z,27.81
2022-08-22T07:34:14.962Z,28.67
2022-08-22T07:36:51.057Z,28.45
2022-08-22T07:39:26.914Z,28.17
2022-08-22T07:42:03.727Z,27.48
2022-08-22T07:44:37.497Z,27.12
2022-08-22T07:47:11.132Z,26.60
2022-08-22T07:49:49.896Z,26.27
2022-08-22T07:52:21.789Z,27.67
2022-08-22T07:54:57.954Z,28.93
2022-08-22T07:57:32.874Z,30.46
2022-08-22T08:00:04.030Z,31.43
2022-08-22T08:02:32.303Z,31.59
2022-08-22T08:05:01.805Z,32.06
2022-08-22T08:07:32.369Z,32.83
2022-08-22T08:10:07.972Z,32.76
2022-08-22T08:12:42.454Z,33.03
2022-08-22T08:15:18.665Z,33.49
2022-08-22T08:17:49.394Z,32.07
2022-08-22T08:20:20.897Z,31.84
2022-08-22T08:22:54.093Z,32.67
2022-08-22T08:25:26.992Z,33.88
2022-08-22T08:28:13.182Z,33.78
2022-08-22T08:30:47.546Z,33.97
2022-08-22T08:33:25.123Z,34.89
2022-08-22T08:36:02.551Z,35.26
2022-08-22T08:38:45.196Z,34.80
2022-08-22T08:41:57.809Z,34.61
2022-08-22T08:44:49.636Z,34.38
2022-08-22T08:47:43.361Z,34.88
2022-08-22T08:50:31.291Z,35.64
2022-08-22T08:53:32.555Z,35.18
2022-08-22T08:56:08.298Z,35.08
2022-08-22T08:58:44.290Z,35.45
2022-08-22T09:01:43.848Z,36.02
2022-08-22T09:05:02.948Z,35.05
2022-08-22T09:07:54.814Z,34.06
2022-08-22T09:10:36.231Z,34.85
2022-08-22T09:13:29.924Z,34.72
2022-08-22T09:16:20.416Z,34.56
2022-08-22T09:19:30.023Z,35.68
2022-08-22T09:22:14.209Z,35.13
2022-08-22T09:25:38.336Z,34.97
2022-08-22T09:28:18.119Z,35.19
2022-08-22T09:30:59.225Z,35.18
2022-08-22T09:33:36.445Z,35.20
2022-08-22T09:36:15.538Z,34.58
2022-08-22T09:38:56.168Z,34.51
2022-08-22T09:41:37.460Z,34.53
2022-08-22T09:44:19.141Z,33.72
2022-08-22T09:46:57.740Z,32.51
2022-08-22T09:49:40.860Z,31.38
2022-08-22T09:52:33.906Z,30.52
2022-08-22T09:55:11.726Z,29.75
2022-08-22T09:57:52.184Z,29.34
2022-08-22T10:00:26.213Z,29.31
2022-08-22T10:03:04.091Z,29.90
2022-08-22T10:05:43.897Z,30.21
2022-08-22T10:08:26.108Z,29.97
2022-08-22T10:11:12.915Z,29.20
2022-08-22T10:14:00.691Z,29.05
2022-08-22T10:16:58.145Z,29.45
2022-08-22T10:19:33.199Z,29.53
2022-08-22T10:22:19.910Z,29.27
2022-08-22T10:25:07.693Z,29.20
2022-08-22T10:27:50.013Z,28.87
2022-08-22T10:30:21.857Z,28.62
2022-08-22T10:33:01.718Z,28.50
2022-08-22T10:35:34.269Z,28.22
2022-08-22T10:38:12.598Z,28.05
2022-08-22T10:40:47.723Z,28.05
2022-08-22T10:43:39.192Z,28.16
2022-08-22T10:46:14.723Z,28.27
2022-08-22T10:48:53.219Z,28.53
2022-08-22T10:51:35.609Z,28.13
2022-08-22T10:54:20.110Z,27.99
2022-08-22T10:56:55.648Z,27.73
2022-08-22T10:59:42.189Z,27.47
2022-08-22T11:02:35.021Z,27.51
2022-08-22T11:05:36.810Z,27.59
2022-08-22T11:08:23.206Z,27.75
2022-08-22T11:11:18.167Z,27.76
2022-08-22T11:14:01.648Z,27.87
2022-08-22T11:16:46.360Z,28.02
2022-08-22T11:19:26.856Z,28.32
2022-08-22T11:22:10.354Z,28.52
2022-08-22T11:25:15.241Z,28.59
2022-08-22T11:28:34.341Z,28.74
2022-08-22T11:31:10.481Z,28.60
2022-08-22T11:33:47.420Z,28.46
2022-08-22T11:36:37.338Z,28.63
2022-08-22T11:39:18.172Z,28.49
2022-08-22T11:41:56.567Z,28.58
2022-08-22T11:44:31.311Z,28.49
2022-08-22T11:47:02.921Z,28.12
2022-08-22T11:49:40.503Z,28.14
2022-08-22T11:52:22.721Z,28.15
2022-08-22T11:55:32.615Z,28.03
2022-08-22T11:58:15.958Z,28.25
2022-08-22T12:00:52.015Z,28.16
2022-08-22T12:03:39.102Z,28.12
2022-08-22T12:06:17.107Z,27.92
2022-08-22T12:09:11.701Z,27.77
2022-08-22T12:11:49.734Z,28.03
2022-08-22T12:14:27.096Z,28.04
2022-08-22T12:17:08.869Z,27.99
2022-08-22T12:20:12.878Z,28.18
2022-08-22T12:22:50.755Z,28.23
2022-08-22T12:25:32.912Z,28.11
2022-08-22T12:28:15.781Z,28.07
2022-08-22T12:30:54.672Z,27.86
2022-08-22T12:33:42.080Z,27.61
2022-08-22T12:36:37.553Z,27.48
2022-08-22T12:39:35.508Z,27.44
2022-08-22T12:42:49.120Z,27.25
2022-08-22T12:48:27.952Z,27.31
2022-08-22T12:50:59.687Z,27.41
2022-08-22T12:53:53.311Z,27.62
2022-08-22T12:56:31.831Z,27.76
2022-08-22T12:59:23.449Z,27.82
2022-08-22T13:01:54.759Z,27.77
2022-08-22T13:04:33.819Z,27.84
2022-08-22T13:07:17.667Z,27.70
2022-08-22T13:09:52.231Z,27.52
2022-08-22T13:12:26.495Z,27.48
2022-08-22T13:15:00.084Z,27.56
2022-08-22T13:17:28.596Z,27.55
2022-08-22T13:20:03.296Z,27.59
2022-08-22T13:22:35.157Z,27.56
2022-08-22T13:25:08.577Z,27.69
2022-08-22T13:27:50.999Z,27.74
2022-08-22T13:30:22.322Z,27.97
2022-08-22T13:32:53.164Z,28.13
2022-08-22T13:35:27.960Z,28.23
2022-08-22T13:38:05.484Z,28.29
2022-08-22T13:40:35.628Z,28.22
2022-08-22T13:43:09.077Z,28.28
2022-08-22T13:45:39.534Z,28.35
2022-08-22T13:48:11.432Z,28.46
2022-08-22T13:50:55.870Z,28.44
2022-08-22T13:53:31.572Z,28.14
2022-08-22T13:56:15.508Z,28.19
2022-08-22T13:58:47.005Z,28.09
2022-08-22T14:01:35.927Z,28.10
2022-08-22T14:04:28.575Z,28.12
2022-08-22T14:07:24.434Z,28.30
2022-08-22T14:09:57.800Z,28.38
2022-08-22T14:12:33.299Z,28.22
2022-08-22T14:15:24.696Z,28.15
2022-08-22T14:18:12.421Z,28.14
2022-08-22T14:20:42.249Z,28.09
2022-08-22T14:23:17.975Z,28.09
2022-08-22T14:25:46.459Z,28.13
2022-08-22T14:28:27.415Z,27.99
2022-08-22T14:31:01.918Z,28.04
2022-08-22T14:33:36.648Z,28.08
2022-08-22T14:36:17.215Z,28.01
2022-08-22T14:38:53.299Z,27.91
2022-08-22T14:41:52.598Z,27.99
2022-08-22T14:44:23.635Z,27.91
2022-08-22T14:46:56.345Z,27.84
2022-08-22T14:49:34.386Z,27.93
2022-08-22T14:52:10.157Z,27.84
2022-08-22T14:54:51.076Z,27.86
2022-08-22T14:57:20.430Z,27.70
2022-08-22T14:59:52.593Z,27.64
2022-08-22T15:02:39.632Z,27.71
2022-08-22T15:05:19.811Z,27.67
2022-08-22T15:07:59.366Z,27.63
2022-08-22T15:10:33.339Z,27.55
2022-08-22T15:13:07.995Z,27.44
2022-08-22T15:15:49.542Z,27.52
2022-08-22T15:18:35.263Z,27.58
2022-08-22T15:21:06.899Z,27.50
2022-08-22T15:23:45.326Z,27.44
2022-08-22T15:26:25.939Z,27.40
2022-08-22T15:29:06.977Z,27.48
2022-08-22T15:31:35.699Z,27.51
2022-08-22T15:34:12.013Z,27.40
2022-08-22T15:37:08.315Z,27.39
2022-08-22T15:40:00.623Z,27.39
2022-08-22T15:42:36.018Z,27.29
2022-08-22T15:45:06.314Z,27.30
2022-08-22T15:47:39.844Z,27.17
2022-08-22T15:50:14.650Z,26.99
2022-08-22T15:53:07.631Z,27.07
2022-08-22T15:55:37.061Z,27.01
2022-08-22T15:58:13.299Z,27.03
2022-08-22T16:00:46.238Z,26.94
2022-08-22T16:03:26.756Z,26.96
2022-08-22T16:05:59.951Z,26.88
2022-08-22T16:08:32.810Z,26.74
2022-08-22T16:11:32.946Z,26.85
2022-08-22T16:14:21.338Z,26.74
2022-08-22T16:17:03.095Z,26.68
2022-08-22T16:19:32.811Z,26.56
2022-08-22T16:22:14.695Z,26.59
2022-08-22T16:25:10.458Z,26.65
2022-08-22T16:27:54.030Z,26.61
2022-08-22T16:30:36.750Z,26.59
2022-08-22T16:33:07.318Z,26.57
2022-08-22T16:36:22.457Z,26.49
2022-08-22T16:38:54.159Z,26.43
2022-08-22T16:41:35.652Z,26.34
2022-08-22T16:44:30.869Z,26.28
2022-08-22T16:47:13.030Z,26.31
2022-08-22T16:50:00.143Z,26.14
2022-08-22T16:52:59.970Z,26.20
2022-08-22T16:55:46.578Z,26.10
2022-08-22T16:58:56.909Z,26.07
2022-08-22T17:01:43.422Z,26.08
2022-08-22T17:04:21.846Z,26.05
2022-08-22T17:07:03.229Z,26.00
2022-08-22T17:09:57.986Z,26.02
2022-08-22T17:12:42.180Z,26.00
2022-08-22T17:15:20.311Z,25.91
2022-08-22T17:18:11.621Z,25.96
2022-08-22T17:20:50.761Z,25.96
2022-08-22T17:23:35.958Z,25.91
2022-08-22T17:26:20.165Z,25.84
2022-08-22T17:29:01.746Z,25.89
2022-08-22T17:31:38.009Z,25.90
2022-08-22T17:34:20.679Z,25.86
2022-08-22T17:37:09.492Z,25.63
2022-08-22T17:39:56.733Z,25.50
2022-08-22T17:42:44.271Z,25.43
2022-08-22T17:45:27.564Z,25.35
2022-08-22T17:48:03.720Z,25.26
2022-08-22T17:50:40.292Z,25.21
2022-08-22T17:53:16.702Z,25.05
2022-08-22T17:55:58.968Z,24.95
2022-08-22T17:58:43.571Z,24.81
2022-08-22T18:01:21.691Z,24.69
2022-08-22T18:03:59.737Z,24.71
2022-08-22T18:06:32.124Z,24.62
2022-08-22T18:09:13.992Z,24.44
2022-08-22T18:11:49.524Z,24.31
2022-08-22T18:14:28.927Z,24.30
2022-08-22T18:16:59.321Z,24.27
2022-08-22T18:19:41.449Z,24.24
2022-08-22T18:22:14.838Z,24.18
2022-08-22T18:24:49.560Z,24.19
2022-08-22T18:27:34.138Z,24.16
2022-08-22T18:30:08.584Z,24.07
2022-08-22T18:32:43.801Z,24.02
2022-08-22T18:35:19.410Z,23.96
2022-08-22T18:37:54.956Z,23.88
2022-08-22T18:40:31.902Z,23.77
2022-08-22T18:43:14.078Z,23.78
2022-08-22T18:46:04.154Z,23.75
2022-08-22T18:48:54.393Z,23.66
2022-08-22T18:51:31.137Z,23.62
2022-08-22T18:54:24.757Z,23.64
2022-08-22T18:57:00.872Z,23.59
2022-08-22T18:59:42.783Z,23.60
2022-08-22T19:02:39.451Z,23.59
2022-08-22T19:05:33.777Z,23.53
2022-08-22T19:08:25.178Z,23.45
2022-08-22T19:11:10.349Z,23.45
2022-08-22T19:14:06.592Z,23.40
2022-08-22T19:17:08.188Z,23.45
2022-08-22T19:20:06.215Z,23.41
2022-08-22T19:22:36.123Z,23.44
2022-08-22T19:25:13.722Z,23.44
2022-08-22T19:27:44.850Z,23.44
2022-08-22T19:30:41.628Z,23.35
2022-08-22T19:33:12.282Z,23.32
2022-08-22T19:36:12.892Z,23.35
2022-08-22T19:39:00.245Z,23.38
2022-08-22T19:41:57.126Z,23.35
2022-08-22T19:44:42.262Z,23.34
2022-08-22T19:47:27.540Z,23.31
2022-08-22T19:50:03.853Z,23.35
2022-08-22T19:52:55.364Z,23.33
2022-08-22T19:55:30.504Z,23.31
2022-08-22T19:58:07.214Z,23.37
2022-08-22T20:00:53.796Z,23.39
2022-08-22T20:03:38.181Z,23.40
2022-08-22T20:06:33.817Z,23.37
2022-08-22T20:09:18.715Z,23.35
2022-08-22T20:11:56.475Z,23.32
2022-08-22T20:14:30.085Z,23.32
2022-08-22T20:22:45.781Z,23.33
2022-08-22T20:25:41.788Z,23.41
2022-08-22T20:28:12.369Z,23.38
2022-08-22T20:30:44.407Z,23.45
2022-08-22T20:33:17.607Z,23.27
2022-08-22T20:35:53.435Z,23.31
2022-08-22T20:41:00.487Z,23.45
2022-08-22T20:43:35.785Z,23.48
2022-08-22T20:46:16.698Z,23.44
2022-08-22T20:48:47.387Z,23.45
2022-08-22T20:51:26.719Z,23.35
2022-08-22T20:53:57.052Z,23.30
2022-08-22T20:56:37.447Z,23.33
2022-08-22T20:59:27.981Z,23.39
2022-08-22T21:02:04.415Z,23.28
2022-08-22T21:04:42.915Z,23.31
2022-08-22T21:07:12.698Z,23.33
2022-08-22T21:09:57.952Z,23.20
2022-08-22T21:12:27.947Z,23.24
2022-08-22T21:14:56.318Z,23.20
2022-08-22T21:17:29.311Z,23.17
2022-08-22T21:20:19.465Z,23.18
2022-08-22T21:22:49.627Z,23.11
2022-08-22T21:25:18.172Z,23.15
2022-08-22T21:27:49.183Z,23.19
2022-08-22T21:30:24.963Z,23.15
2022-08-22T21:32:56.268Z,23.17
2022-08-22T21:35:30.211Z,23.13
2022-08-22T21:38:01.910Z,23.10
2022-08-22T21:40:34.719Z,23.13
2022-08-22T21:43:07.555Z,23.08
2022-08-22T21:45:47.122Z,23.05
2022-08-22T21:48:36.314Z,23.10
2022-08-22T21:51:41.156Z,23.01
2022-08-22T21:54:40.704Z,22.92
2022-08-22T21:57:19.074Z,23.01
2022-08-22T21:59:52.198Z,22.77
2022-08-22T22:02:37.348Z,22.75
2022-08-22T22:05:11.324Z,22.78
2022-08-22T22:07:41.911Z,22.87
2022-08-22T22:10:15.075Z,22.90
2022-08-22T22:12:45.729Z,22.88
2022-08-22T22:15:22.491Z,22.84
2022-08-22T22:17:50.923Z,22.84
2022-08-22T22:20:21.124Z,22.86
2022-08-22T22:22:59.837Z,22.76
2022-08-22T22:25:40.288Z,22.68
2022-08-22T22:28:13.207Z,22.67
2022-08-22T22:30:42.918Z,22.82
2022-08-22T22:33:11.296Z,22.78
2022-08-22T22:35:41.369Z,22.74
2022-08-22T22:38:10.159Z,22.76
2022-08-22T22:40:39.794Z,22.78
2022-08-22T22:43:10.264Z,22.75
2022-08-22T22:45:38.755Z,22.79
2022-08-22T22:48:08.178Z,22.66
2022-08-22T22:50:40.586Z,22.67
2022-08-22T22:53:09.491Z,22.59
2022-08-22T22:55:42.488Z,22.60
2022-08-22T22:58:13.765Z,22.61
2022-08-22T23:00:43.683Z,22.56
2022-08-22T23:03:11.949Z,22.48
2022-08-22T23:05:40.054Z,22.48
2022-08-22T23:08:08.070Z,22.43
2022-08-22T23:10:36.272Z,22.43
2022-08-22T23:13:06.716Z,22.35
2022-08-22T23:15:34.643Z,22.18
2022-08-22T23:18:02.850Z,22.12
2022-08-22T23:20:31.395Z,22.19
2022-08-22T23:23:01.015Z,22.16
2022-08-22T23:25:29.400Z,22.10
2022-08-22T23:27:58.842Z,22.07
2022-08-22T23:30:28.299Z,22.09
2022-08-22T23:32:56.903Z,22.05
2022-08-22T23:35:25.143Z,22.02
2022-08-22T23:37:53.354Z,22.00
2022-08-22T23:40:21.493Z,22.02
2022-08-22T23:42:49.856Z,21.94
2022-08-22T23:45:17.975Z,21.87
2022-08-22T23:47:47.638Z,21.80
2022-08-22T23:50:15.705Z,21.77
2022-08-22T23:52:43.844Z,21.69
2022-08-22T23:55:11.992Z,21.80
2022-08-22T23:57:40.067Z,21.74
